Time;durP1;ratioP1;P1;durP2;ratioP2;P2;SDS_P1;SDS_P2;PMS_P1;PMS_P2;Temp;Humidity;BMP_temperature;BMP_pressure;BME280_temperature;BME280_humidity;BME280_pressure;Samples;Min_cycle;Max_cycle;Signal;HPM_P1;HPM_P2
2022/11/17 00:00:30;;;;;;;43.60;21.88;;;21.70;59.40;;;;;;5042031;28;20471;-67
2022/11/17 00:02:55;;;;;;;41.83;23.42;;;21.60;59.30;;;;;;5050453;28;20039;-67
2022/11/17 00:05:22;;;;;;;42.92;22.65;;;21.70;59.30;;;;;;5050422;28;20468;-66
2022/11/17 00:07:48;;;;;;;45.65;21.23;;;21.70;59.40;;;;;;5048189;28;20385;-66
2022/11/17 00:10:15;;;;;;;44.28;22.02;;;21.80;59.40;;;;;;5064541;28;20140;-67
2022/11/17 00:15:27;;;;;;;39.95;20.88;;;21.90;59.10;;;;;;5041399;28;20030;-67
2022/11/17 00:23:45;;;;;;;48.75;21.92;;;21.90;59.10;;;;;;5048451;28;20083;-67
2022/11/17 00:26:16;;;;;;;41.75;22.05;;;21.90;59.10;;;;;;5040543;28;20124;-66
2022/11/17 00:28:43;;;;;;;39.30;21.08;;;21.90;59.10;;;;;;5032697;28;20068;-67
2022/11/17 00:34:04;;;;;;;44.38;21.45;;;22.00;59.10;;;;;;5052637;28;20481;-67
2022/11/17 00:36:37;;;;;;;41.72;21.73;;;22.00;59.20;;;;;;5033015;28;20037;-67
2022/11/17 00:39:04;;;;;;;42.63;21.30;;;22.00;59.10;;;;;;5013756;28;20037;-67
2022/11/17 00:41:30;;;;;;;42.42;21.05;;;22.00;59.10;;;;;;5031561;28;20037;-67
2022/11/17 00:43:56;;;;;;;41.72;21.02;;;22.00;59.00;;;;;;5048292;28;20041;-66
2022/11/17 00:46:22;;;;;;;42.47;20.42;;;22.10;59.00;;;;;;5051052;28;20124;-67
2022/11/17 00:48:48;;;;;;;40.80;21.02;;;22.10;58.90;;;;;;5053206;28;20037;-67
2022/11/17 00:51:14;;;;;;;45.05;21.45;;;22.00;58.80;;;;;;5052948;28;20560;-67
2022/11/17 00:53:40;;;;;;;39.00;20.58;;;22.10;58.90;;;;;;5048392;28;20044;-67
2022/11/17 00:56:06;;;;;;;40.13;22.33;;;22.00;58.80;;;;;;5032083;28;20462;-67
2022/11/17 00:58:34;;;;;;;42.85;22.17;;;22.10;58.70;;;;;;5049609;28;20076;-67
2022/11/17 01:01:00;;;;;;;44.92;23.70;;;22.00;58.50;;;;;;5045191;28;20065;-67
2022/11/17 01:03:26;;;;;;;40.75;22.08;;;22.20;58.50;;;;;;5052941;28;20417;-67
2022/11/17 01:05:52;;;;;;;43.55;21.67;;;22.10;58.50;;;;;;5051230;28;20037;-67
2022/11/17 01:08:18;;;;;;;43.22;21.95;;;22.20;58.60;;;;;;5050495;28;20527;-66
2022/11/17 01:10:44;;;;;;;42.70;22.33;;;22.10;58.70;;;;;;5040139;28;20116;-67
2022/11/17 01:13:10;;;;;;;46.75;22.92;;;22.10;58.50;;;;;;5053169;28;20060;-67
2022/11/17 01:15:36;;;;;;;42.80;22.98;;;22.00;58.50;;;;;;5044386;28;20052;-67
2022/11/17 01:18:02;;;;;;;46.38;23.67;;;22.10;58.70;;;;;;5053129;28;20064;-67
2022/11/17 01:20:28;;;;;;;45.00;24.20;;;22.30;58.90;;;;;;5051957;28;20044;-67
2022/11/17 01:22:54;;;;;;;49.55;23.42;;;22.00;58.70;;;;;;5044636;28;20053;-67
2022/11/17 01:25:20;;;;;;;54.50;26.08;;;22.00;58.60;;;;;;5038396;28;20064;-67
2022/11/17 01:27:47;;;;;;;49.75;25.50;;;22.00;58.50;;;;;;5032681;28;20049;-66
2022/11/17 01:30:16;;;;;;;55.85;26.45;;;22.00;58.50;;;;;;5037761;28;20025;-67
2022/11/17 01:32:42;;;;;;;47.15;24.90;;;22.00;58.40;;;;;;5060074;28;20049;-67
2022/11/17 01:35:08;;;;;;;58.42;27.65;;;22.00;58.60;;;;;;5032758;28;20034;-66
2022/11/17 01:37:34;;;;;;;53.03;27.58;;;22.10;58.50;;;;;;5072170;28;20048;-67
2022/11/17 01:40:00;;;;;;;52.35;26.35;;;22.10;58.60;;;;;;5038793;28;20037;-67
2022/11/17 01:42:26;;;;;;;46.53;25.35;;;22.00;58.60;;;;;;5032405;28;20445;-67
2022/11/17 01:45:20;;;;;;;56.85;26.17;;;22.00;58.60;;;;;;5043920;28;20064;-66
2022/11/17 01:48:01;;;;;;;56.05;27.52;;;22.00;58.40;;;;;;5012445;28;20107;-67
2022/11/17 01:50:37;;;;;;;59.35;27.70;;;21.90;58.50;;;;;;5028506;28;20589;-67
2022/11/17 01:53:09;;;;;;;53.28;25.27;;;21.90;58.60;;;;;;5044043;28;20031;-67
2022/11/17 01:55:40;;;;;;;47.72;25.58;;;21.90;58.80;;;;;;5033901;28;20045;-67
2022/11/17 01:58:17;;;;;;;53.30;25.95;;;21.90;58.70;;;;;;5032444;28;20107;-67
2022/11/17 02:00:44;;;;;;;56.42;26.52;;;21.80;58.80;;;;;;5042161;28;20133;-67
2022/11/17 02:03:10;;;;;;;52.13;24.65;;;21.80;58.90;;;;;;5050904;28;20072;-67
2022/11/17 02:05:58;;;;;;;52.03;25.58;;;21.80;58.90;;;;;;5052100;28;20041;-65
2022/11/17 02:08:29;;;;;;;52.20;23.65;;;21.80;58.80;;;;;;5042890;28;20083;-66
2022/11/17 02:10:56;;;;;;;54.63;24.95;;;21.80;58.90;;;;;;5033574;28;20049;-66
2022/11/17 02:13:23;;;;;;;55.85;26.52;;;21.80;58.80;;;;;;5032919;28;20044;-67
2022/11/17 02:15:49;;;;;;;52.15;23.67;;;21.80;58.80;;;;;;5036108;28;20067;-67
2022/11/17 02:18:16;;;;;;;52.17;25.40;;;21.80;58.70;;;;;;5046065;28;20081;-67
2022/11/17 02:20:43;;;;;;;51.65;25.40;;;21.80;58.70;;;;;;5031820;28;20560;-66
2022/11/17 02:23:15;;;;;;;47.58;23.15;;;21.90;58.80;;;;;;5044992;28;20378;-67
2022/11/17 02:26:14;;;;;;;57.53;24.80;;;21.90;58.80;;;;;;5023111;28;20026;-67
2022/11/17 02:28:49;;;;;;;52.40;25.42;;;21.80;58.60;;;;;;5061577;28;20077;-67
2022/11/17 02:31:24;;;;;;;48.28;23.33;;;21.90;58.70;;;;;;5029476;28;20063;-66
2022/11/17 02:34:13;;;;;;;52.22;26.65;;;21.80;58.60;;;;;;5034365;28;20021;-67
2022/11/17 02:36:45;;;;;;;59.78;25.58;;;21.80;58.60;;;;;;5046715;28;20090;-67
2022/11/17 02:39:11;;;;;;;54.65;24.67;;;21.90;58.80;;;;;;5030624;28;20116;-67
2022/11/17 02:41:50;;;;;;;56.53;25.67;;;21.70;58.70;;;;;;5030507;28;20108;-67
2022/11/17 02:44:30;;;;;;;55.83;23.95;;;21.70;58.80;;;;;;5033169;28;20091;-66
2022/11/17 02:47:07;;;;;;;47.53;22.83;;;21.70;58.80;;;;;;5046798;28;20052;-66
2022/11/17 02:49:37;;;;;;;46.50;24.00;;;21.70;59.00;;;;;;5051057;28;20382;-67
2022/11/17 02:52:05;;;;;;;47.58;22.42;;;21.70;59.00;;;;;;5046860;28;20079;-67
2022/11/17 02:54:32;;;;;;;37.47;21.60;;;21.60;59.00;;;;;;5041476;28;20519;-67
2022/11/17 02:56:58;;;;;;;41.42;21.83;;;21.60;59.00;;;;;;5031369;28;20041;-67
2022/11/17 02:59:39;;;;;;;47.78;21.95;;;21.50;59.10;;;;;;5034569;28;20036;-67
2022/11/17 03:02:17;;;;;;;43.20;18.58;;;21.60;59.20;;;;;;5046634;28;20021;-67
2022/11/17 03:05:04;;;;;;;40.85;19.38;;;21.70;59.10;;;;;;5045543;28;20113;-67
2022/11/17 03:07:48;;;;;;;40.10;20.48;;;21.80;59.00;;;;;;5048511;28;20033;-67
2022/11/17 03:10:24;;;;;;;42.08;21.20;;;21.80;58.70;;;;;;5032197;28;20053;-67
2022/11/17 03:13:25;;;;;;;42.72;19.13;;;21.80;58.70;;;;;;5029626;28;20035;-67
2022/11/17 03:15:58;;;;;;;41.22;18.77;;;21.80;58.70;;;;;;5051904;28;20040;-67
2022/11/17 03:18:33;;;;;;;36.70;16.73;;;21.80;58.50;;;;;;5051090;28;20033;-66
2022/11/17 03:20:59;;;;;;;35.55;17.65;;;21.70;58.50;;;;;;5050766;28;20048;-67
2022/11/17 03:23:48;;;;;;;42.92;19.63;;;21.90;58.60;;;;;;5062683;28;20056;-67
2022/11/17 03:26:29;;;;;;;37.95;15.90;;;21.90;58.50;;;;;;5011333;28;20038;-66
2022/11/17 03:28:57;;;;;;;37.05;18.23;;;21.80;58.40;;;;;;5032034;28;20052;-67
2022/11/17 03:31:26;;;;;;;36.03;18.45;;;21.80;58.20;;;;;;5035794;28;20087;-67
2022/11/17 03:33:54;;;;;;;36.50;16.67;;;21.90;58.60;;;;;;5032451;28;20027;-67
2022/11/17 03:36:32;;;;;;;38.63;17.08;;;21.70;58.70;;;;;;5030046;28;20119;-67
2022/11/17 03:39:12;;;;;;;29.90;15.30;;;21.80;58.60;;;;;;5046002;28;20466;-66
2022/11/17 03:41:43;;;;;;;41.85;17.52;;;21.70;58.60;;;;;;5030769;28;20505;-67
2022/11/17 03:44:12;;;;;;;36.42;16.75;;;21.80;58.60;;;;;;5030790;28;20116;-67
2022/11/17 03:46:43;;;;;;;32.13;15.82;;;21.80;58.60;;;;;;5044333;28;20157;-68
2022/11/17 03:49:36;;;;;;;40.95;17.35;;;21.70;58.60;;;;;;5052368;28;20041;-67
2022/11/17 03:52:03;;;;;;;33.35;17.23;;;21.70;58.60;;;;;;5028175;28;20041;-67
2022/11/17 03:54:29;;;;;;;41.72;19.38;;;21.70;58.70;;;;;;5023392;28;20086;-66
2022/11/17 03:57:05;;;;;;;37.13;18.60;;;21.70;58.90;;;;;;5012040;28;20383;-67
2022/11/17 03:59:54;;;;;;;37.75;17.67;;;21.70;59.00;;;;;;5011357;28;20069;-67
2022/11/17 04:02:21;;;;;;;37.70;17.27;;;21.80;59.00;;;;;;5023881;28;20098;-67
2022/11/17 04:05:05;;;;;;;32.42;17.58;;;21.70;59.00;;;;;;5026883;28;20105;-67
2022/11/17 04:07:33;;;;;;;35.40;16.95;;;21.60;58.80;;;;;;5020036;28;20045;-67
2022/11/17 04:09:59;;;;;;;32.63;16.20;;;21.80;58.90;;;;;;5016094;28;20073;-66
2022/11/17 04:17:56;;;;;;;31.13;15.10;;;21.80;58.80;;;;;;5025762;28;20048;-67
2022/11/17 04:20:22;;;;;;;33.88;16.50;;;21.80;58.60;;;;;;5012651;28;20459;-67
2022/11/17 04:23:05;;;;;;;30.02;14.82;;;21.90;58.70;;;;;;5028965;28;20044;-67
2022/11/17 04:28:36;;;;;;;28.23;12.20;;;21.80;58.40;;;;;;5007397;28;20054;-67
2022/11/17 04:31:11;;;;;;;35.35;14.93;;;21.80;58.40;;;;;;5041623;28;20125;-68
2022/11/17 04:33:40;;;;;;;42.13;15.40;;;22.00;58.20;;;;;;5053866;28;20056;-67
2022/11/17 04:36:07;;;;;;;30.35;15.60;;;22.00;58.10;;;;;;5050141;28;20033;-66
2022/11/17 04:38:33;;;;;;;31.25;15.77;;;22.00;58.10;;;;;;5043790;28;20025;-67
2022/11/17 04:43:46;;;;;;;37.35;18.73;;;21.90;58.20;;;;;;5033303;28;20064;-67
2022/11/17 04:46:13;;;;;;;41.75;19.17;;;22.00;58.00;;;;;;5035902;28;20107;-67
2022/11/17 04:48:39;;;;;;;36.95;19.00;;;21.70;58.40;;;;;;5051890;28;20069;-66
2022/11/17 04:51:05;;;;;;;38.55;19.67;;;21.70;58.80;;;;;;5053245;28;20136;-67
2022/11/17 04:53:31;;;;;;;39.17;19.02;;;21.70;59.00;;;;;;5041250;28;20117;-67
2022/11/17 04:56:01;;;;;;;39.55;20.35;;;21.60;59.10;;;;;;5032520;28;20037;-67
2022/11/17 04:58:27;;;;;;;38.58;20.23;;;21.60;59.20;;;;;;5038912;28;20029;-67
2022/11/17 05:00:53;;;;;;;42.90;21.17;;;21.60;59.20;;;;;;5042563;28;20021;-67
2022/11/17 05:03:19;;;;;;;40.92;21.13;;;21.50;59.30;;;;;;5064394;28;20068;-67
2022/11/17 05:05:46;;;;;;;41.03;21.95;;;21.50;59.30;;;;;;5037648;28;20041;-67
2022/11/17 05:08:13;;;;;;;38.75;20.10;;;21.50;59.30;;;;;;5036219;28;20029;-67
2022/11/17 05:13:24;;;;;;;38.78;19.42;;;21.60;59.50;;;;;;5033342;28;20394;-67
2022/11/17 05:18:41;;;;;;;39.60;19.75;;;21.60;58.70;;;;;;5031908;28;20483;-67
2022/11/17 05:21:08;;;;;;;38.67;19.40;;;21.60;58.80;;;;;;5032046;28;20454;-67
2022/11/17 05:23:53;;;;;;;37.58;20.95;;;21.80;58.70;;;;;;5039204;28;20041;-67
2022/11/17 05:26:25;;;;;;;39.67;18.60;;;21.70;58.40;;;;;;5032846;28;20092;-66
2022/11/17 05:28:51;;;;;;;38.33;19.73;;;21.70;59.00;;;;;;5031849;28;20120;-67
2022/11/17 05:31:17;;;;;;;42.50;19.40;;;21.70;58.30;;;;;;5030437;28;20037;-67
2022/11/17 05:33:43;;;;;;;42.88;22.02;;;21.80;58.40;;;;;;5032455;28;20084;-66
2022/11/17 05:36:10;;;;;;;41.13;22.13;;;21.60;58.30;;;;;;5034921;28;20033;-67
2022/11/17 05:38:36;;;;;;;48.40;21.92;;;21.70;58.50;;;;;;5040424;28;20033;-67
2022/11/17 05:41:02;;;;;;;38.65;19.67;;;21.70;58.70;;;;;;5031353;28;20047;-67
2022/11/17 05:43:28;;;;;;;41.30;20.85;;;21.60;58.90;;;;;;5032563;28;20041;-67
2022/11/17 05:45:54;;;;;;;38.55;18.70;;;21.60;59.00;;;;;;5032154;28;20455;-67
2022/11/17 05:48:20;;;;;;;42.47;19.48;;;21.70;58.90;;;;;;5031800;28;20052;-67
2022/11/17 05:50:46;;;;;;;37.22;17.50;;;21.80;58.60;;;;;;5031996;28;20038;-67
2022/11/17 05:53:12;;;;;;;32.08;17.92;;;21.80;58.60;;;;;;5031344;28;20037;-67
2022/11/17 05:55:38;;;;;;;32.95;16.17;;;21.90;58.50;;;;;;5032302;28;20041;-66
2022/11/17 05:58:32;;;;;;;26.50;13.50;;;21.90;58.40;;;;;;5032585;28;20044;-67
2022/11/17 06:00:58;;;;;;;30.65;15.35;;;21.80;58.20;;;;;;5030640;28;20483;-67
2022/11/17 06:03:33;;;;;;;27.40;14.32;;;21.90;58.50;;;;;;5044864;28;20106;-68
2022/11/17 06:05:59;;;;;;;29.85;14.45;;;21.90;58.50;;;;;;5034552;28;20079;-67
2022/11/17 06:08:27;;;;;;;30.48;14.55;;;21.80;58.20;;;;;;5027580;28;20037;-65
2022/11/17 06:10:54;;;;;;;28.33;14.43;;;21.80;58.40;;;;;;5029301;28;20057;-67
2022/11/17 06:13:27;;;;;;;31.10;14.13;;;21.80;58.60;;;;;;5027923;28;20089;-67
2022/11/17 06:15:59;;;;;;;27.42;12.25;;;21.70;58.80;;;;;;5036650;28;20684;-67
2022/11/17 06:18:33;;;;;;;24.90;11.98;;;21.80;59.10;;;;;;5026588;28;20132;-66
2022/11/17 06:21:00;;;;;;;22.15;11.07;;;21.60;59.00;;;;;;5026673;28;20041;-67
2022/11/17 06:23:29;;;;;;;24.27;13.63;;;21.80;58.90;;;;;;5025047;28;20042;-66
2022/11/17 06:25:57;;;;;;;20.98;12.02;;;21.80;58.70;;;;;;5028876;28;20041;-66
2022/11/17 06:28:25;;;;;;;13.65;8.30;;;21.70;52.90;;;;;;5049086;28;20040;-66
2022/11/17 06:30:52;;;;;;;14.20;7.80;;;21.80;50.60;;;;;;5031146;28;20041;-66
2022/11/17 06:33:18;;;;;;;13.85;8.10;;;21.80;49.70;;;;;;5028897;28;20521;-67
2022/11/17 06:35:45;;;;;;;12.73;8.07;;;21.80;48.40;;;;;;5028986;28;20057;-67
2022/11/17 06:38:11;;;;;;;14.20;7.95;;;21.90;49.30;;;;;;5025902;28;20825;-66
2022/11/17 06:40:37;;;;;;;17.42;10.27;;;21.90;49.90;;;;;;5031070;28;20104;-67
2022/11/17 06:43:07;;;;;;;16.75;9.27;;;22.00;49.20;;;;;;5031032;28;20113;-66
2022/11/17 06:45:34;;;;;;;21.40;10.90;;;22.00;48.10;;;;;;5031226;28;20049;-67
2022/11/17 06:48:00;;;;;;;18.98;11.82;;;22.10;47.80;;;;;;5040225;28;20041;-67
2022/11/17 06:50:26;;;;;;;23.20;13.00;;;22.00;48.20;;;;;;5029383;28;20037;-65
2022/11/17 06:52:56;;;;;;;28.95;17.67;;;22.00;48.70;;;;;;5030058;28;20024;-67
2022/11/17 06:55:22;;;;;;;24.45;14.30;;;22.00;48.40;;;;;;5030722;28;20048;-67
2022/11/17 06:57:48;;;;;;;22.20;12.77;;;22.00;48.00;;;;;;5031001;28;20069;-67
2022/11/17 07:00:14;;;;;;;25.60;12.98;;;22.00;48.70;;;;;;5029986;28;20060;-66
2022/11/17 07:02:40;;;;;;;22.15;10.13;;;22.20;54.60;;;;;;5029691;28;20094;-67
2022/11/17 07:05:06;;;;;;;21.17;11.15;;;22.20;59.10;;;;;;5027681;28;20041;-67
2022/11/17 07:07:32;;;;;;;20.48;9.95;;;22.40;59.40;;;;;;5019240;28;20040;-65
2022/11/17 07:09:58;;;;;;;24.52;11.63;;;22.40;59.30;;;;;;5041153;28;20451;-67
2022/11/17 07:12:24;;;;;;;22.98;11.50;;;22.50;58.90;;;;;;5030155;28;20469;-66
2022/11/17 07:14:50;;;;;;;23.50;11.73;;;22.50;58.60;;;;;;5042642;28;20111;-65
2022/11/17 07:17:16;;;;;;;18.95;9.65;;;22.50;59.30;;;;;;5031096;28;20041;-65
2022/11/17 07:19:42;;;;;;;18.08;10.57;;;22.40;59.00;;;;;;5029802;28;20029;-66
2022/11/17 07:22:08;;;;;;;20.80;11.45;;;22.50;58.80;;;;;;5030111;28;20030;-66
2022/11/17 07:24:34;;;;;;;22.20;10.65;;;22.60;58.90;;;;;;5044933;28;20087;-66
2022/11/17 07:27:00;;;;;;;20.52;10.38;;;22.50;59.00;;;;;;5030221;28;20473;-66
2022/11/17 07:29:27;;;;;;;25.90;10.75;;;22.40;58.70;;;;;;5030775;28;20049;-65
2022/11/17 07:31:53;;;;;;;20.77;10.27;;;22.50;59.60;;;;;;5030970;28;20072;-65
2022/11/17 07:34:19;;;;;;;22.48;10.93;;;22.40;59.50;;;;;;5029935;28;20094;-64
2022/11/17 07:36:45;;;;;;;29.45;11.68;;;22.40;59.40;;;;;;5029142;28;20394;-64
2022/11/17 07:39:11;;;;;;;25.40;12.73;;;22.30;59.50;;;;;;5033055;28;20036;-67
2022/11/17 07:41:37;;;;;;;22.75;10.05;;;22.30;61.00;;;;;;5047608;28;20057;-66
2022/11/17 07:44:03;;;;;;;17.33;8.30;;;22.20;60.30;;;;;;5041014;28;20104;-65
2022/11/17 07:46:29;;;;;;;15.60;6.97;;;22.30;61.00;;;;;;5034609;28;20072;-65
2022/11/17 07:48:55;;;;;;;17.95;7.07;;;22.30;60.10;;;;;;5030751;28;20045;-67
2022/11/17 07:51:21;;;;;;;15.90;7.13;;;22.50;59.10;;;;;;5042660;28;20033;-66
2022/11/17 07:53:47;;;;;;;16.27;6.43;;;22.60;58.60;;;;;;5032925;28;20049;-68
2022/11/17 07:56:13;;;;;;;17.10;6.75;;;22.70;58.30;;;;;;5030393;28;20370;-67
2022/11/17 07:58:39;;;;;;;14.48;6.95;;;22.80;58.10;;;;;;5032194;28;20070;-68
2022/11/17 08:01:07;;;;;;;17.10;8.30;;;22.90;57.70;;;;;;5050207;28;20028;-67
2022/11/17 08:03:33;;;;;;;18.63;9.32;;;22.90;57.40;;;;;;5046413;28;20037;-66
2022/11/17 08:06:04;;;;;;;16.70;7.07;;;22.90;56.90;;;;;;5029419;28;20034;-67
2022/11/17 08:08:30;;;;;;;17.80;8.05;;;23.00;56.60;;;;;;5029073;28;20065;-68
2022/11/17 08:11:01;;;;;;;16.15;8.10;;;22.90;56.10;;;;;;5029869;28;20095;-67
2022/11/17 08:13:27;;;;;;;22.75;11.02;;;23.00;55.70;;;;;;5030226;28;20061;-68
2022/11/17 08:15:57;;;;;;;6.65;2.38;;;23.00;55.30;;;;;;5030326;28;20057;-68
2022/11/17 08:18:24;;;;;;;7.60;3.92;;;23.10;54.70;;;;;;5039528;28;20467;-68
2022/11/17 08:20:50;;;;;;;7.63;2.95;;;23.10;54.60;;;;;;5029050;28;20037;-68
2022/11/17 08:23:16;;;;;;;5.97;3.90;;;23.20;54.00;;;;;;5029212;28;20120;-68
2022/11/17 08:25:43;;;;;;;13.35;5.75;;;23.20;54.60;;;;;;5030240;28;20366;-67
2022/11/17 08:28:09;;;;;;;5.63;3.53;;;23.20;53.60;;;;;;5030403;28;20057;-68
2022/11/17 08:30:35;;;;;;;3.95;2.63;;;23.20;53.00;;;;;;5030455;28;20044;-68
2022/11/17 08:33:01;;;;;;;20.52;10.73;;;23.30;52.20;;;;;;5063379;28;20041;-68
2022/11/17 08:35:27;;;;;;;21.08;11.07;;;23.30;51.30;;;;;;5032634;28;20691;-69
2022/11/17 08:37:54;;;;;;;23.08;11.90;;;23.20;48.60;;;;;;5032796;28;20474;-69
2022/11/17 08:40:20;;;;;;;20.50;10.80;;;23.20;48.30;;;;;;5032646;28;20043;-68
2022/11/17 08:42:51;;;;;;;28.17;12.20;;;23.20;49.70;;;;;;5033810;28;20057;-68
2022/11/17 08:45:17;;;;;;;23.08;11.40;;;23.10;49.10;;;;;;5064709;28;20045;-68
2022/11/17 08:47:43;;;;;;;23.55;12.15;;;23.00;49.10;;;;;;5033756;28;20029;-69
2022/11/17 08:50:09;;;;;;;20.52;10.20;;;22.80;51.70;;;;;;5036825;28;20028;-69
2022/11/17 08:52:35;;;;;;;21.08;10.30;;;23.00;52.10;;;;;;5037267;28;20033;-69
2022/11/17 08:55:04;;;;;;;14.80;8.68;;;23.00;52.90;;;;;;5031415;28;20040;-69
2022/11/17 08:57:31;;;;;;;17.30;8.77;;;23.00;53.70;;;;;;5032364;28;20331;-66
2022/11/17 08:59:57;;;;;;;25.38;9.95;;;23.00;53.70;;;;;;5032137;28;20128;-66
2022/11/17 09:02:25;;;;;;;16.38;8.13;;;23.30;54.90;;;;;;5033212;28;20678;-68
2022/11/17 09:04:50;;;;;;;14.85;8.93;;;23.60;50.40;;;;;;5033570;28;20041;-68
2022/11/17 09:07:17;;;;;;;20.08;9.63;;;23.60;47.30;;;;;;5033334;28;20124;-69
2022/11/17 09:09:45;;;;;;;15.10;7.57;;;23.70;44.90;;;;;;5030935;28;20018;-68
2022/11/17 09:12:11;;;;;;;14.48;7.55;;;23.80;44.50;;;;;;5031698;28;20045;-68
2022/11/17 09:14:37;;;;;;;14.50;7.63;;;23.90;43.70;;;;;;5032187;28;20025;-68
2022/11/17 09:17:03;;;;;;;15.73;8.10;;;23.90;48.00;;;;;;5032651;28;20033;-67
2022/11/17 09:19:29;;;;;;;13.20;8.50;;;23.90;50.10;;;;;;5032880;28;20041;-67
2022/11/17 09:21:55;;;;;;;11.20;7.25;;;23.80;51.50;;;;;;5031515;28;20099;-66
2022/11/17 09:24:21;;;;;;;15.18;8.07;;;23.70;53.10;;;;;;5040642;28;20450;-68
2022/11/17 09:26:47;;;;;;;12.63;6.93;;;23.60;52.80;;;;;;5020284;28;20117;-68
2022/11/17 09:29:13;;;;;;;10.13;6.38;;;23.60;53.40;;;;;;5034368;28;20037;-69
2022/11/17 09:31:39;;;;;;;13.52;7.15;;;23.60;55.30;;;;;;5031621;28;20390;-70
2022/11/17 09:34:05;;;;;;;10.65;7.68;;;23.70;57.00;;;;;;5031908;28;20112;-68
2022/11/17 09:36:31;;;;;;;12.50;7.80;;;23.60;58.20;;;;;;5032677;28;20475;-68
2022/11/17 09:38:57;;;;;;;12.52;8.25;;;23.80;57.60;;;;;;5026143;28;20041;-69
2022/11/17 09:41:27;;;;;;;13.02;6.70;;;23.60;56.80;;;;;;5024039;28;20048;-69
2022/11/17 09:44:00;;;;;;;12.68;7.40;;;23.70;55.30;;;;;;5029567;28;20044;-70
2022/11/17 09:46:31;;;;;;;11.35;6.70;;;23.70;54.90;;;;;;5030062;28;20518;-69
2022/11/17 09:49:16;;;;;;;10.20;6.80;;;23.70;55.20;;;;;;5026597;28;20037;-68
2022/11/17 09:51:45;;;;;;;10.80;7.53;;;23.60;55.40;;;;;;5046447;28;20041;-69
2022/11/17 09:54:22;;;;;;;9.07;6.78;;;23.50;55.70;;;;;;5035832;28;20055;-68
2022/11/17 09:56:50;;;;;;;11.27;6.63;;;23.50;55.00;;;;;;5028550;28;20033;-70
2022/11/17 09:59:19;;;;;;;9.95;6.63;;;23.60;55.80;;;;;;5043721;28;20049;-68
2022/11/17 10:01:45;;;;;;;12.30;6.15;;;23.60;55.50;;;;;;5029747;28;20136;-69
2022/11/17 10:04:15;;;;;;;10.93;6.85;;;23.60;55.90;;;;;;5029645;28;20120;-72
2022/11/17 10:06:44;;;;;;;10.90;6.85;;;23.60;55.40;;;;;;5028891;28;20606;-69
2022/11/17 10:09:26;;;;;;;8.48;5.85;;;23.60;54.80;;;;;;5028445;28;20037;-66
2022/11/17 10:11:55;;;;;;;11.13;6.07;;;23.50;54.30;;;;;;5028165;28;20132;-68
2022/11/17 10:14:22;;;;;;;12.05;6.65;;;23.50;56.10;;;;;;5030041;28;20052;-67
2022/11/17 10:16:52;;;;;;;10.88;6.68;;;23.50;57.20;;;;;;5035114;28;20461;-66
2022/11/17 10:19:24;;;;;;;10.23;6.55;;;23.50;57.60;;;;;;5037059;28;20025;-65
2022/11/17 10:22:02;;;;;;;7.45;5.22;;;23.50;57.40;;;;;;5045938;28;20052;-64
2022/11/17 10:24:43;;;;;;;10.80;6.07;;;23.50;57.90;;;;;;5032985;28;20029;-66
2022/11/17 10:27:20;;;;;;;10.18;5.68;;;23.20;58.20;;;;;;5037728;28;20053;-66
2022/11/17 10:29:59;;;;;;;8.15;5.15;;;23.20;58.20;;;;;;5029275;28;20049;-65
2022/11/17 10:32:27;;;;;;;10.75;5.40;;;23.40;58.40;;;;;;5038017;28;21796;-64
2022/11/17 10:34:54;;;;;;;11.77;6.20;;;23.30;58.30;;;;;;5030951;28;20039;-64
2022/11/17 10:37:31;;;;;;;10.23;6.28;;;23.30;58.30;;;;;;5033871;28;20038;-67
2022/11/17 10:40:16;;;;;;;11.18;7.22;;;23.40;58.50;;;;;;5030783;28;20033;-66
2022/11/17 10:42:55;;;;;;;13.60;7.50;;;23.40;48.40;;;;;;5031476;28;20116;-69
2022/11/17 10:45:21;;;;;;;15.57;7.57;;;23.70;48.30;;;;;;5052050;28;20061;-68
2022/11/17 10:47:47;;;;;;;13.40;6.55;;;23.90;47.70;;;;;;5037987;28;20049;-67
2022/11/17 10:50:26;;;;;;;12.43;6.82;;;23.90;48.70;;;;;;5021821;28;20358;-68
2022/11/17 10:53:13;;;;;;;10.98;6.78;;;24.10;48.60;;;;;;5040612;28;20136;-72
2022/11/17 10:55:39;;;;;;;10.02;6.47;;;24.10;48.50;;;;;;5030772;28;20363;-66
2022/11/17 10:58:24;;;;;;;10.52;7.43;;;24.10;45.80;;;;;;5031057;28;20053;-65
2022/11/17 11:00:59;;;;;;;10.18;5.88;;;24.20;45.50;;;;;;5047449;28;20033;-66
2022/11/17 11:03:35;;;;;;;11.13;7.70;;;24.10;48.60;;;;;;5065730;28;20055;-66
2022/11/17 11:06:20;;;;;;;9.90;7.00;;;24.50;52.60;;;;;;5048015;28;20383;-66
2022/11/17 11:09:02;;;;;;;10.38;7.78;;;24.90;50.60;;;;;;5050530;28;20408;-64
2022/11/17 11:11:43;;;;;;;7.30;5.30;;;25.10;54.60;;;;;;5049506;28;20524;-64
2022/11/17 11:14:23;;;;;;;14.25;9.50;;;25.40;45.80;;;;;;5048414;28;20037;-66
2022/11/17 11:16:50;;;;;;;11.32;8.20;;;25.20;45.90;;;;;;5056052;28;20084;-66
2022/11/17 11:19:18;;;;;;;12.02;7.40;;;25.10;45.30;;;;;;5053415;28;20132;-66
2022/11/17 11:22:15;;;;;;;7.07;5.10;;;24.90;44.10;;;;;;5046728;28;20041;-65
2022/11/17 11:25:17;;;;;;;7.85;5.93;;;25.00;43.20;;;;;;5045527;28;20092;-66
2022/11/17 11:28:17;;;;;;;8.05;5.50;;;24.90;45.00;;;;;;5043736;28;20270;-65
2022/11/17 11:30:59;;;;;;;8.80;5.85;;;24.90;45.60;;;;;;4998757;28;20567;-65
2022/11/17 11:33:57;;;;;;;8.48;5.80;;;24.90;42.50;;;;;;4990220;28;20427;-66
2022/11/17 11:36:47;;;;;;;7.13;5.80;;;24.80;42.20;;;;;;4969626;28;20460;-65
2022/11/17 11:39:27;;;;;;;6.63;4.75;;;24.80;42.30;;;;;;4956351;28;20035;-65
2022/11/17 11:42:17;;;;;;;7.50;5.65;;;24.60;42.00;;;;;;4950262;29;20047;-65
2022/11/17 11:44:58;;;;;;;7.00;5.05;;;24.60;42.80;;;;;;4958104;28;20043;-65
2022/11/17 11:47:43;;;;;;;8.35;5.40;;;24.60;42.80;;;;;;4967044;28;20047;-66
2022/11/17 11:50:17;;;;;;;6.18;4.82;;;24.50;43.10;;;;;;4968113;28;20178;-64
2022/11/17 11:52:54;;;;;;;7.82;5.15;;;24.40;43.20;;;;;;4960593;28;20066;-65
2022/11/17 11:55:25;;;;;;;8.30;5.57;;;24.30;42.80;;;;;;4948352;28;20044;-66
2022/11/17 11:58:02;;;;;;;9.73;5.13;;;24.30;42.90;;;;;;4957016;28;20118;-65
2022/11/17 12:00:28;;;;;;;9.38;5.45;;;24.30;50.70;;;;;;4958034;28;20212;-64
2022/11/17 12:03:32;;;;;;;9.70;5.57;;;24.40;53.50;;;;;;4961688;28;20385;-65
2022/11/17 12:09:05;;;;;;;35.45;15.02;;;24.30;55.90;;;;;;4949368;28;20063;-64
2022/11/17 12:14:18;;;;;;;9.45;6.07;;;24.20;57.40;;;;;;4991785;28;20751;-63
2022/11/17 12:16:46;;;;;;;6.63;4.47;;;24.20;57.60;;;;;;4993628;28;20022;-65
2022/11/17 12:19:43;;;;;;;5.15;3.72;;;24.10;58.00;;;;;;4975582;28;20137;-65
2022/11/17 12:22:32;;;;;;;13.32;5.72;;;24.00;58.00;;;;;;4997905;28;20073;-65
2022/11/17 12:25:11;;;;;;;28.45;10.75;;;24.00;58.20;;;;;;4956007;28;20562;-64
2022/11/17 12:27:37;;;;;;;142.68;54.65;;;23.90;58.40;;;;;;4964149;28;20484;-66
2022/11/17 12:30:24;;;;;;;6.82;3.72;;;23.90;58.10;;;;;;4968053;28;20046;-65
2022/11/17 12:32:51;;;;;;;4.13;3.10;;;23.80;57.70;;;;;;4957774;28;20034;-65
2022/11/17 12:35:32;;;;;;;7.18;3.00;;;23.70;57.70;;;;;;4960946;28;20039;-65
2022/11/17 12:38:14;;;;;;;3.95;3.05;;;23.80;57.40;;;;;;4969669;28;20041;-64
2022/11/17 12:40:50;;;;;;;4.88;4.22;;;23.80;57.50;;;;;;4972084;28;20050;-63
2022/11/17 12:43:23;;;;;;;4.68;3.30;;;23.70;57.80;;;;;;4949341;28;20050;-64
2022/11/17 12:45:57;;;;;;;4.18;2.60;;;23.70;57.80;;;;;;4963416;28;20400;-65
2022/11/17 12:48:30;;;;;;;7.18;2.83;;;23.60;57.60;;;;;;4991610;28;20047;-63
2022/11/17 12:51:04;;;;;;;5.15;2.47;;;23.70;57.60;;;;;;4991823;28;20427;-65
2022/11/17 12:53:52;;;;;;;3.92;1.67;;;23.60;57.80;;;;;;4974562;28;20754;-62
2022/11/17 12:56:37;;;;;;;3.63;2.45;;;23.60;57.80;;;;;;4972112;28;20039;-65
2022/11/17 12:59:21;;;;;;;2.65;2.10;;;23.60;57.80;;;;;;4972083;28;20227;-64
2022/11/17 13:01:50;;;;;;;2.47;1.73;;;23.60;57.90;;;;;;4988686;28;20403;-64
2022/11/17 13:04:33;;;;;;;2.65;1.80;;;23.60;57.80;;;;;;5020366;28;20044;-64
2022/11/17 13:07:05;;;;;;;1.60;1.50;;;23.50;57.90;;;;;;5026141;28;20117;-65
2022/11/17 13:09:33;;;;;;;1.98;1.63;;;23.60;57.80;;;;;;5036924;28;20075;-65
2022/11/17 13:12:04;;;;;;;1.98;1.55;;;23.60;57.90;;;;;;5033266;28;20103;-65
2022/11/17 13:14:32;;;;;;;2.10;1.70;;;23.60;57.90;;;;;;5028597;28;20105;-61
2022/11/17 13:16:59;;;;;;;1.33;1.23;;;23.60;57.80;;;;;;5030160;28;20041;-64
2022/11/17 13:19:35;;;;;;;1.33;1.00;;;23.60;58.00;;;;;;5031768;28;20041;-63
2022/11/17 13:22:04;;;;;;;1.58;1.40;;;23.60;57.90;;;;;;5032387;28;20080;-64
2022/11/17 13:24:36;;;;;;;1.88;1.50;;;23.60;57.70;;;;;;5031201;28;20053;-64
2022/11/17 13:27:06;;;;;;;2.47;1.67;;;23.80;57.60;;;;;;5029800;28;20171;-63